Time;durP1;ratioP1;P1;durP2;ratioP2;P2;SDS_P1;SDS_P2;PMS_P1;PMS_P2;Temp;Humidity;BMP_temperature;BMP_pressure;BME280_temperature;BME280_humidity;BME280_pressure;Samples;Min_cycle;Max_cycle;Signal;HPM_P1;HPM_P2
2022/06/29 00:00:07;;;;;;;22.23;16.50;;;17.80;74.60;;;;;;5032515;28;46603;-62
2022/06/29 00:02:33;;;;;;;23.40;15.80;;;17.90;74.20;;;;;;5034564;28;46751;-62
2022/06/29 00:04:58;;;;;;;25.83;16.47;;;18.00;74.00;;;;;;5034610;28;46563;-62
2022/06/29 00:07:24;;;;;;;23.53;15.33;;;18.10;73.60;;;;;;5032734;28;46403;-62
2022/06/29 00:09:50;;;;;;;22.20;17.03;;;18.20;73.30;;;;;;5035175;28;46177;-60
2022/06/29 00:12:15;;;;;;;22.73;17.23;;;18.20;72.90;;;;;;5034189;28;46358;-63
2022/06/29 00:14:44;;;;;;;28.80;18.23;;;18.20;73.20;;;;;;5030414;28;46378;-63
2022/06/29 00:17:11;;;;;;;20.33;16.97;;;18.10;74.00;;;;;;5033220;28;46701;-62
2022/06/29 00:19:37;;;;;;;23.27;16.27;;;18.00;74.40;;;;;;5030169;28;46427;-62
2022/06/29 00:22:03;;;;;;;25.40;17.40;;;18.00;74.50;;;;;;5033093;28;47040;-60
2022/06/29 00:24:30;;;;;;;26.57;17.30;;;18.10;74.30;;;;;;5029338;28;46470;-63
2022/06/29 00:26:56;;;;;;;28.43;18.43;;;18.10;74.00;;;;;;5032463;28;46397;-62
2022/06/29 00:29:21;;;;;;;31.10;18.90;;;18.20;73.80;;;;;;5030847;28;46398;-62
2022/06/29 00:31:47;;;;;;;24.13;16.70;;;18.20;73.70;;;;;;5027354;28;46441;-62
2022/06/29 00:34:13;;;;;;;22.70;16.40;;;18.30;73.40;;;;;;5033262;28;46391;-62
2022/06/29 00:36:38;;;;;;;20.90;17.30;;;18.40;73.20;;;;;;5028744;28;46607;-61
2022/06/29 00:39:04;;;;;;;23.70;16.87;;;18.40;72.80;;;;;;5033795;28;46150;-63
2022/06/29 00:41:30;;;;;;;21.40;15.37;;;18.50;72.70;;;;;;5030918;28;46426;-62
2022/06/29 00:43:55;;;;;;;23.00;15.30;;;18.50;72.80;;;;;;5032961;28;46572;-63
2022/06/29 00:46:21;;;;;;;26.17;15.60;;;18.50;72.40;;;;;;5030797;28;46574;-64
2022/06/29 00:48:47;;;;;;;27.57;16.80;;;18.60;72.40;;;;;;5031769;28;46324;-62
2022/06/29 00:51:17;;;;;;;26.30;16.50;;;18.60;72.40;;;;;;5030093;28;47010;-62
2022/06/29 00:53:45;;;;;;;23.30;14.73;;;18.70;72.50;;;;;;5031407;28;45890;-63
2022/06/29 00:56:13;;;;;;;27.37;14.23;;;18.70;72.50;;;;;;5033067;28;47514;-62
2022/06/29 00:58:42;;;;;;;19.63;15.90;;;18.80;72.60;;;;;;5028786;28;46402;-62
2022/06/29 01:01:09;;;;;;;23.00;14.57;;;18.80;72.40;;;;;;5033300;28;46865;-63
2022/06/29 01:03:34;;;;;;;20.90;13.50;;;18.90;72.60;;;;;;5031009;28;46510;-62
2022/06/29 01:06:00;;;;;;;21.30;14.70;;;18.90;73.50;;;;;;5038422;28;46409;-62
2022/06/29 01:08:26;;;;;;;17.23;13.60;;;18.90;72.40;;;;;;5029201;28;46468;-63
2022/06/29 01:10:53;;;;;;;22.03;14.60;;;19.00;72.10;;;;;;5032048;28;47264;-62
2022/06/29 01:13:19;;;;;;;30.07;17.00;;;19.00;72.10;;;;;;5029145;28;46318;-62
2022/06/29 01:15:44;;;;;;;34.90;16.07;;;19.00;72.50;;;;;;5035205;28;46359;-62
2022/06/29 01:18:10;;;;;;;28.53;18.20;;;18.90;72.70;;;;;;5032335;28;46512;-62
2022/06/29 01:20:35;;;;;;;27.40;16.33;;;19.00;72.80;;;;;;5033904;28;47912;-63
2022/06/29 01:23:01;;;;;;;29.93;16.23;;;19.00;72.80;;;;;;5032697;28;46335;-62
2022/06/29 01:25:27;;;;;;;33.50;18.13;;;19.00;72.80;;;;;;5031428;28;46389;-62
2022/06/29 01:27:52;;;;;;;27.53;17.20;;;18.90;72.70;;;;;;5031935;28;46543;-63
2022/06/29 01:30:18;;;;;;;24.33;16.43;;;18.90;72.70;;;;;;5030088;28;47322;-62
2022/06/29 01:32:44;;;;;;;30.93;16.37;;;18.70;73.10;;;;;;5028889;28;46357;-64
2022/06/29 01:35:12;;;;;;;24.87;17.23;;;18.50;73.80;;;;;;5037036;28;46394;-63
2022/06/29 01:37:39;;;;;;;28.93;17.53;;;18.40;74.30;;;;;;5029253;28;46410;-63
2022/06/29 01:40:05;;;;;;;33.20;18.13;;;18.30;74.80;;;;;;5032212;28;47093;-62
2022/06/29 01:42:31;;;;;;;24.60;16.80;;;18.20;75.10;;;;;;5028411;28;46488;-62
2022/06/29 01:44:57;;;;;;;32.50;16.20;;;18.10;75.50;;;;;;5027996;28;45985;-62
2022/06/29 01:47:22;;;;;;;35.90;15.50;;;18.00;75.80;;;;;;5027967;28;46489;-62
2022/06/29 01:49:48;;;;;;;33.30;17.00;;;17.80;76.00;;;;;;5027099;28;47073;-62
2022/06/29 01:52:14;;;;;;;33.47;17.37;;;17.70;76.20;;;;;;5030135;28;45868;-62
2022/06/29 01:54:39;;;;;;;26.43;17.17;;;17.60;76.40;;;;;;5026639;28;46374;-63
2022/06/29 01:57:05;;;;;;;28.23;18.77;;;17.50;76.50;;;;;;5029443;28;46230;-62
2022/06/29 01:59:31;;;;;;;34.93;18.43;;;17.50;76.60;;;;;;5028664;28;46453;-63
2022/06/29 02:01:56;;;;;;;28.90;17.93;;;17.50;76.70;;;;;;5030598;28;46340;-62
2022/06/29 02:04:22;;;;;;;27.67;17.33;;;17.50;76.50;;;;;;5031621;28;46314;-63
2022/06/29 02:06:47;;;;;;;26.80;17.93;;;17.50;76.30;;;;;;5031795;28;46307;-63
2022/06/29 02:09:13;;;;;;;31.33;19.10;;;17.50;76.00;;;;;;5034526;28;46442;-63
2022/06/29 02:11:39;;;;;;;25.40;17.83;;;17.50;75.90;;;;;;5030665;28;46383;-62
2022/06/29 02:14:05;;;;;;;22.77;15.97;;;17.50;75.90;;;;;;5031849;28;45736;-63
2022/06/29 02:16:30;;;;;;;27.90;18.47;;;17.50;75.90;;;;;;5032360;28;46559;-64
2022/06/29 02:18:56;;;;;;;25.17;17.30;;;17.50;75.80;;;;;;5034126;28;47045;-64
2022/06/29 02:21:22;;;;;;;32.87;16.70;;;17.50;75.80;;;;;;5030912;28;46453;-63
2022/06/29 02:23:49;;;;;;;22.60;15.90;;;17.50;75.60;;;;;;5045020;28;46488;-64
2022/06/29 02:26:14;;;;;;;27.77;16.77;;;17.50;75.70;;;;;;5035701;28;46593;-63
2022/06/29 02:28:40;;;;;;;25.73;17.00;;;17.50;75.60;;;;;;5036357;28;46977;-62
2022/06/29 02:36:34;;;;;;;22.70;16.20;;;17.60;75.60;;;;;;5032148;28;46458;-62
2022/06/29 02:39:00;;;;;;;29.30;18.10;;;17.60;75.60;;;;;;5032516;28;46459;-63
2022/06/29 02:41:26;;;;;;;27.17;16.57;;;17.60;75.60;;;;;;5033783;28;46378;-63
2022/06/29 02:43:51;;;;;;;24.70;18.47;;;17.60;75.50;;;;;;5033596;28;46568;-62
2022/06/29 02:46:17;;;;;;;27.87;18.40;;;17.60;75.40;;;;;;5032981;28;46514;-63
2022/06/29 02:48:43;;;;;;;30.23;19.80;;;17.50;75.40;;;;;;5031656;28;47377;-63
2022/06/29 02:51:08;;;;;;;26.57;17.90;;;17.50;75.90;;;;;;5038331;28;46473;-63
2022/06/29 02:53:34;;;;;;;30.17;21.13;;;17.40;76.50;;;;;;5034574;28;46437;-63
2022/06/29 02:56:00;;;;;;;25.97;17.37;;;17.40;76.30;;;;;;5034931;28;45791;-63
2022/06/29 02:58:25;;;;;;;23.77;17.23;;;17.40;76.30;;;;;;5031863;28;47319;-63
2022/06/29 03:00:51;;;;;;;24.83;17.07;;;17.40;76.10;;;;;;5027589;28;46466;-63
2022/06/29 03:03:17;;;;;;;28.20;17.80;;;17.50;75.80;;;;;;5032676;28;46358;-62
2022/06/29 03:05:42;;;;;;;25.07;17.87;;;17.60;75.10;;;;;;5032741;28;46571;-63
2022/06/29 03:08:08;;;;;;;26.37;17.63;;;17.80;74.60;;;;;;5034483;28;47241;-62
2022/06/29 03:10:33;;;;;;;29.30;17.97;;;17.80;75.30;;;;;;5034346;28;46370;-63
2022/06/29 03:12:59;;;;;;;24.50;16.83;;;18.00;74.00;;;;;;5034878;28;45903;-63
2022/06/29 03:15:25;;;;;;;24.70;16.40;;;18.00;73.50;;;;;;5033562;28;46391;-63
2022/06/29 03:17:52;;;;;;;24.43;16.47;;;18.00;73.40;;;;;;5034260;28;47098;-63
2022/06/29 03:20:19;;;;;;;23.57;16.23;;;18.00;73.70;;;;;;5031446;28;46433;-63
2022/06/29 03:22:46;;;;;;;27.70;16.73;;;18.10;73.80;;;;;;5034400;28;46406;-63
2022/06/29 03:25:12;;;;;;;26.37;17.37;;;18.10;73.50;;;;;;5033978;28;45827;-63
2022/06/29 03:27:38;;;;;;;23.00;16.50;;;18.20;73.30;;;;;;5031764;28;46395;-62
2022/06/29 03:30:04;;;;;;;20.73;15.20;;;18.20;73.50;;;;;;5032852;28;46398;-63
2022/06/29 03:32:30;;;;;;;23.37;15.00;;;18.20;73.50;;;;;;5030854;28;46422;-62
2022/06/29 03:34:56;;;;;;;22.83;15.53;;;18.20;73.50;;;;;;5035543;28;46584;-63
2022/06/29 03:37:21;;;;;;;31.50;15.17;;;18.30;73.70;;;;;;5029400;28;47688;-62
2022/06/29 03:39:48;;;;;;;30.40;14.73;;;18.30;73.60;;;;;;5030734;28;46401;-62
2022/06/29 03:42:14;;;;;;;27.77;14.93;;;18.30;73.70;;;;;;5032106;28;46385;-61
2022/06/29 03:44:39;;;;;;;24.40;14.03;;;18.30;73.70;;;;;;5036262;28;46602;-63
2022/06/29 03:47:07;;;;;;;25.93;15.40;;;18.30;73.70;;;;;;5029739;28;46541;-61
2022/06/29 03:49:36;;;;;;;26.20;14.30;;;18.30;73.50;;;;;;5034924;28;46475;-63
2022/06/29 03:52:03;;;;;;;28.67;15.50;;;18.40;73.50;;;;;;5034352;28;46473;-63
2022/06/29 03:54:29;;;;;;;26.40;14.57;;;18.40;73.40;;;;;;5032755;28;46562;-62
2022/06/29 03:56:55;;;;;;;25.07;16.07;;;18.40;73.50;;;;;;5034187;28;46363;-63
2022/06/29 03:59:20;;;;;;;23.07;14.87;;;18.40;73.50;;;;;;5031507;28;46557;-63
2022/06/29 04:01:46;;;;;;;21.00;15.80;;;18.50;73.50;;;;;;5033771;28;46382;-62
2022/06/29 04:04:13;;;;;;;25.03;16.20;;;18.50;73.20;;;;;;5033152;28;46325;-63
2022/06/29 04:06:39;;;;;;;26.40;16.90;;;18.60;73.10;;;;;;5031246;28;46864;-64
2022/06/29 04:09:04;;;;;;;23.60;16.30;;;18.70;72.50;;;;;;5030855;28;46422;-64
2022/06/29 04:12:15;;;;;;;22.70;15.60;;;18.80;72.60;;;;;;5030546;28;46513;-61
2022/06/29 04:14:17;;;;;;;23.63;15.80;;;18.80;72.60;;;;;;5033318;28;45922;-62
2022/06/29 04:16:43;;;;;;;22.60;15.60;;;18.80;72.60;;;;;;5029164;28;46653;-63
2022/06/29 04:19:08;;;;;;;28.80;15.80;;;18.90;72.70;;;;;;5031921;28;46382;-62
2022/06/29 04:21:34;;;;;;;21.53;15.03;;;18.90;72.70;;;;;;5032049;28;46361;-63
2022/06/29 04:24:00;;;;;;;22.07;15.33;;;18.90;72.70;;;;;;5028679;28;45954;-62
2022/06/29 04:26:25;;;;;;;26.73;14.73;;;19.00;72.80;;;;;;5033307;28;47273;-62
2022/06/29 04:28:51;;;;;;;21.17;14.93;;;19.00;72.80;;;;;;5036073;28;46320;-63
2022/06/29 04:31:16;;;;;;;22.13;15.13;;;19.00;72.60;;;;;;5034928;28;47188;-60
2022/06/29 04:33:42;;;;;;;22.53;14.90;;;19.10;72.10;;;;;;5033220;28;45893;-63
2022/06/29 04:36:08;;;;;;;22.10;15.70;;;19.10;72.20;;;;;;5036803;28;46434;-63
2022/06/29 04:38:33;;;;;;;27.70;15.63;;;19.10;72.20;;;;;;5032922;28;46670;-60
2022/06/29 04:40:59;;;;;;;30.30;16.43;;;19.10;72.50;;;;;;5032416;28;46416;-63
2022/06/29 04:43:27;;;;;;;22.20;16.07;;;19.00;72.40;;;;;;5032747;28;46635;-62
2022/06/29 04:48:37;;;;;;;24.20;17.70;;;19.10;72.70;;;;;;5025622;28;45887;-62
2022/06/29 04:51:03;;;;;;;25.17;15.80;;;19.10;72.30;;;;;;5031571;28;46483;-61
2022/06/29 04:53:29;;;;;;;23.50;16.40;;;19.10;72.20;;;;;;5036645;28;46586;-63
2022/06/29 04:55:54;;;;;;;24.27;16.53;;;19.10;72.30;;;;;;5031638;28;46212;-63
2022/06/29 04:58:20;;;;;;;28.07;16.40;;;19.10;72.20;;;;;;5032340;28;46422;-63
2022/06/29 05:00:46;;;;;;;24.23;16.93;;;19.20;71.90;;;;;;5028284;28;46346;-62
2022/06/29 05:03:11;;;;;;;29.97;16.80;;;19.30;71.70;;;;;;5033176;28;46355;-62
2022/06/29 05:05:37;;;;;;;22.50;16.30;;;19.30;71.50;;;;;;5029671;28;47193;-62
2022/06/29 05:08:03;;;;;;;20.97;16.23;;;19.40;71.60;;;;;;5048024;28;46467;-62
2022/06/29 05:10:29;;;;;;;23.30;16.67;;;19.40;71.40;;;;;;5028331;28;46453;-62
2022/06/29 05:12:54;;;;;;;34.33;17.30;;;19.50;71.30;;;;;;5030484;28;46363;-62
2022/06/29 05:15:20;;;;;;;26.20;16.83;;;19.50;71.20;;;;;;5032119;28;46984;-62
2022/06/29 05:17:47;;;;;;;21.37;16.60;;;19.50;71.40;;;;;;5029502;28;45871;-63
2022/06/29 05:20:13;;;;;;;21.20;15.23;;;19.50;71.70;;;;;;5030387;28;46534;-62
2022/06/29 05:22:39;;;;;;;23.80;15.57;;;19.60;71.70;;;;;;5026920;28;46329;-61
2022/06/29 05:25:05;;;;;;;19.80;15.50;;;19.60;71.70;;;;;;5031686;28;47271;-62
2022/06/29 05:27:31;;;;;;;22.77;15.50;;;19.60;71.50;;;;;;5027960;28;46446;-63
2022/06/29 05:29:57;;;;;;;22.70;15.90;;;19.70;71.40;;;;;;5030565;28;46366;-63
2022/06/29 05:32:22;;;;;;;20.60;16.00;;;19.80;71.30;;;;;;5026216;28;46329;-63
2022/06/29 05:34:48;;;;;;;23.37;15.93;;;19.90;71.00;;;;;;5025761;28;46525;-62
2022/06/29 05:37:13;;;;;;;21.53;15.77;;;20.10;70.30;;;;;;5032594;28;46520;-63
2022/06/29 05:39:39;;;;;;;26.00;15.00;;;20.20;70.00;;;;;;5031997;28;45851;-61
2022/06/29 05:42:05;;;;;;;23.60;16.60;;;20.30;69.90;;;;;;5030609;28;45926;-65
2022/06/29 05:44:30;;;;;;;30.50;18.00;;;20.40;69.70;;;;;;5030774;28;46357;-63
2022/06/29 05:46:56;;;;;;;21.30;16.73;;;20.40;69.60;;;;;;5028480;28;46396;-63
2022/06/29 05:49:22;;;;;;;26.30;17.63;;;20.60;69.50;;;;;;5030575;28;46316;-64
2022/06/29 05:51:47;;;;;;;27.47;18.37;;;20.70;69.20;;;;;;5032684;28;46437;-63
2022/06/29 05:54:13;;;;;;;25.03;17.90;;;20.70;68.90;;;;;;5024551;28;46438;-62
2022/06/29 05:56:40;;;;;;;24.90;17.33;;;20.90;68.40;;;;;;5030241;28;46292;-62
2022/06/29 05:59:06;;;;;;;30.70;16.90;;;21.10;68.10;;;;;;5028338;28;46495;-67
2022/06/29 06:01:32;;;;;;;21.67;18.20;;;21.20;67.70;;;;;;5030903;28;46367;-63
2022/06/29 06:03:57;;;;;;;21.67;15.70;;;21.20;67.60;;;;;;5031847;28;47205;-61
2022/06/29 06:06:23;;;;;;;18.83;15.23;;;21.30;67.30;;;;;;5025491;28;45936;-62
2022/06/29 06:08:48;;;;;;;19.90;15.03;;;21.40;67.20;;;;;;5034597;28;46680;-63
2022/06/29 06:11:14;;;;;;;26.57;15.10;;;21.50;66.60;;;;;;5033195;28;46732;-61
2022/06/29 06:13:39;;;;;;;21.20;14.40;;;21.60;66.40;;;;;;5028932;28;46377;-62
2022/06/29 06:16:05;;;;;;;20.40;14.90;;;21.80;65.80;;;;;;5030252;28;46464;-63
2022/06/29 06:18:31;;;;;;;24.70;15.10;;;22.10;65.10;;;;;;5028138;28;46372;-63
2022/06/29 06:20:56;;;;;;;17.00;14.43;;;22.20;64.60;;;;;;5031426;28;46474;-63
2022/06/29 06:23:22;;;;;;;25.00;14.87;;;22.20;64.40;;;;;;5029745;28;47224;-63
2022/06/29 06:25:48;;;;;;;15.43;12.73;;;22.40;63.70;;;;;;5028905;28;46731;-64
2022/06/29 06:28:14;;;;;;;21.17;14.00;;;22.40;63.00;;;;;;5030021;28;46688;-64
2022/06/29 06:30:39;;;;;;;24.63;12.20;;;22.60;63.20;;;;;;5030505;28;46398;-62
2022/06/29 06:33:05;;;;;;;14.07;11.60;;;22.80;62.90;;;;;;5028085;28;47076;-63
2022/06/29 06:35:31;;;;;;;14.80;11.90;;;23.30;61.80;;;;;;5029658;28;45877;-63
2022/06/29 06:37:57;;;;;;;14.70;11.70;;;23.80;60.10;;;;;;5030666;28;46869;-63
2022/06/29 06:43:08;;;;;;;20.90;11.77;;;24.30;57.20;;;;;;5038253;28;46668;-63
2022/06/29 06:45:34;;;;;;;16.20;11.80;;;24.00;56.30;;;;;;5024518;28;46316;-63
2022/06/29 06:48:00;;;;;;;16.53;10.77;;;24.10;56.60;;;;;;5031508;28;46422;-64
2022/06/29 06:50:25;;;;;;;21.43;9.50;;;24.50;56.20;;;;;;5023749;28;46668;-63
2022/06/29 06:52:51;;;;;;;16.13;10.10;;;24.80;54.50;;;;;;5027107;28;46333;-63
2022/06/29 06:55:16;;;;;;;16.33;9.13;;;24.60;53.90;;;;;;5028455;28;46536;-63
2022/06/29 06:57:42;;;;;;;13.90;8.40;;;24.60;54.00;;;;;;5031943;28;46447;-62
2022/06/29 07:00:09;;;;;;;11.10;8.17;;;24.80;53.30;;;;;;5029894;28;46458;-63
2022/06/29 07:02:35;;;;;;;12.10;8.53;;;25.40;52.50;;;;;;5029627;28;47131;-62
2022/06/29 07:05:01;;;;;;;14.60;7.60;;;25.50;50.40;;;;;;5031947;28;46445;-63
2022/06/29 07:07:27;;;;;;;12.40;6.73;;;25.80;49.40;;;;;;5031963;28;46375;-63
2022/06/29 07:09:52;;;;;;;15.70;7.50;;;26.60;47.70;;;;;;5028125;28;45934;-64
2022/06/29 07:12:18;;;;;;;10.27;7.23;;;27.10;45.90;;;;;;5029157;28;46557;-64
2022/06/29 07:14:44;;;;;;;12.63;7.87;;;27.30;45.00;;;;;;5033692;28;46442;-63
2022/06/29 07:17:09;;;;;;;10.00;7.00;;;27.00;44.80;;;;;;5033327;28;46403;-61
2022/06/29 07:19:35;;;;;;;15.63;7.90;;;26.60;45.70;;;;;;5032629;28;46818;-62
2022/06/29 07:22:01;;;;;;;11.00;7.23;;;26.20;46.20;;;;;;5032914;28;47287;-62
2022/06/29 07:24:26;;;;;;;12.20;8.17;;;25.90;46.60;;;;;;5030964;28;46362;-62
2022/06/29 07:26:52;;;;;;;9.97;7.83;;;25.60;47.10;;;;;;5035090;28;46402;-62
2022/06/29 07:29:18;;;;;;;12.77;8.00;;;25.70;47.10;;;;;;5031725;28;46517;-63
2022/06/29 07:31:43;;;;;;;10.80;7.53;;;25.80;46.60;;;;;;5035287;28;47499;-62
2022/06/29 07:34:09;;;;;;;9.17;6.70;;;25.80;46.50;;;;;;5036281;28;46395;-63
2022/06/29 07:36:35;;;;;;;13.50;7.97;;;26.00;45.80;;;;;;5034000;28;46482;-63
2022/06/29 07:39:00;;;;;;;9.80;7.93;;;26.00;45.80;;;;;;5032993;28;46301;-63
2022/06/29 07:41:26;;;;;;;8.60;7.03;;;26.10;45.10;;;;;;5034426;28;47062;-64
2022/06/29 07:43:52;;;;;;;16.90;7.47;;;26.00;44.70;;;;;;5035319;28;46435;-63
2022/06/29 07:46:18;;;;;;;8.80;7.10;;;25.80;44.10;;;;;;5035399;28;45884;-63
2022/06/29 07:48:43;;;;;;;10.73;7.30;;;25.50;44.70;;;;;;5036283;28;46532;-61
2022/06/29 07:51:09;;;;;;;10.60;7.13;;;25.40;45.10;;;;;;5034104;28;48005;-62
2022/06/29 07:53:35;;;;;;;11.83;7.23;;;25.50;44.80;;;;;;5035081;28;46420;-62
2022/06/29 07:56:00;;;;;;;9.00;7.10;;;25.40;45.10;;;;;;5029753;28;45923;-61
2022/06/29 07:58:26;;;;;;;10.20;7.10;;;25.10;45.40;;;;;;5032531;28;46509;-63
2022/06/29 08:00:53;;;;;;;11.73;7.30;;;24.80;46.30;;;;;;5033569;28;47227;-63
2022/06/29 08:03:19;;;;;;;7.87;6.47;;;24.70;46.70;;;;;;5033742;28;46331;-64
2022/06/29 08:05:45;;;;;;;8.50;7.10;;;24.40;46.70;;;;;;5033381;28;46422;-62
2022/06/29 08:08:11;;;;;;;11.73;8.13;;;24.50;47.10;;;;;;5033678;28;46819;-64
2022/06/29 08:10:37;;;;;;;9.20;7.27;;;24.50;47.00;;;;;;5029665;28;46452;-62
2022/06/29 08:13:02;;;;;;;11.73;8.70;;;24.60;46.60;;;;;;5027893;28;46799;-63
2022/06/29 08:15:28;;;;;;;10.67;7.67;;;24.60;46.80;;;;;;5030768;28;46474;-64
2022/06/29 08:17:54;;;;;;;10.53;8.10;;;24.70;46.20;;;;;;5030927;28;46427;-62
2022/06/29 08:20:20;;;;;;;11.23;7.40;;;24.90;46.10;;;;;;5028995;28;47120;-64
2022/06/29 08:22:47;;;;;;;10.30;7.43;;;25.20;45.20;;;;;;5032136;28;46426;-63
2022/06/29 08:25:13;;;;;;;10.47;8.40;;;25.20;44.80;;;;;;5030406;28;46366;-61
2022/06/29 08:27:40;;;;;;;12.67;7.60;;;25.70;44.40;;;;;;5030053;28;46612;-63
2022/06/29 08:30:07;;;;;;;11.87;7.63;;;26.30;42.60;;;;;;5035290;28;47089;-62
2022/06/29 08:32:33;;;;;;;14.33;7.50;;;26.70;41.30;;;;;;5047565;28;46841;-65
2022/06/29 08:35:01;;;;;;;10.83;6.57;;;27.00;40.70;;;;;;5047852;28;46303;-63
2022/06/29 08:37:28;;;;;;;11.97;8.30;;;27.70;39.90;;;;;;5046605;28;46594;-65
2022/06/29 08:39:54;;;;;;;8.97;6.63;;;28.50;37.30;;;;;;5043277;28;47162;-65
2022/06/29 08:42:23;;;;;;;10.40;7.50;;;28.70;36.10;;;;;;5045518;28;46774;-64
2022/06/29 08:44:51;;;;;;;14.07;7.60;;;28.90;35.00;;;;;;5042460;28;46461;-63
2022/06/29 08:47:16;;;;;;;10.67;7.43;;;28.80;35.00;;;;;;5047797;28;46359;-64
2022/06/29 08:49:44;;;;;;;15.23;8.40;;;28.50;35.40;;;;;;5041949;28;46519;-64
2022/06/29 08:52:11;;;;;;;14.37;8.00;;;28.10;36.00;;;;;;5044660;28;46481;-64
2022/06/29 08:54:46;;;;;;;10.47;7.63;;;27.60;37.20;;;;;;5046911;28;46372;-63
2022/06/29 08:57:12;;;;;;;12.67;8.20;;;26.90;37.30;;;;;;5045961;28;46432;-63
2022/06/29 08:59:38;;;;;;;11.03;8.27;;;26.60;37.90;;;;;;5044269;28;46748;-62
2022/06/29 09:02:04;;;;;;;11.70;7.97;;;26.50;39.00;;;;;;5043951;28;46399;-66
2022/06/29 09:04:30;;;;;;;9.03;7.57;;;26.50;38.80;;;;;;5046241;28;46446;-61
2022/06/29 09:06:57;;;;;;;13.07;8.60;;;26.00;38.90;;;;;;5046587;28;46456;-60
2022/06/29 09:09:23;;;;;;;9.77;8.40;;;26.10;39.40;;;;;;5043865;28;47166;-61
2022/06/29 09:11:53;;;;;;;19.47;10.67;;;26.10;39.40;;;;;;5043629;28;46726;-61
2022/06/29 09:14:24;;;;;;;11.97;9.23;;;26.40;39.30;;;;;;5046575;28;46363;-61
2022/06/29 09:17:03;;;;;;;10.70;8.83;;;26.60;38.10;;;;;;5045933;28;46889;-60
2022/06/29 09:19:34;;;;;;;14.57;10.57;;;26.50;37.60;;;;;;5043237;28;46925;-62
2022/06/29 09:22:00;;;;;;;13.20;9.60;;;26.60;37.20;;;;;;5044408;28;45947;-62
2022/06/29 09:24:32;;;;;;;14.20;9.77;;;26.60;37.70;;;;;;5045061;28;46464;-62
2022/06/29 09:27:09;;;;;;;19.63;12.47;;;26.40;37.40;;;;;;5046729;28;46374;-62
2022/06/29 09:29:39;;;;;;;29.00;14.50;;;26.50;37.70;;;;;;5045377;28;46978;-64
2022/06/29 09:32:05;;;;;;;17.40;9.50;;;26.80;37.40;;;;;;5044594;28;46369;-62
2022/06/29 09:34:45;;;;;;;23.17;12.87;;;26.90;37.20;;;;;;5045020;28;46500;-62
2022/06/29 09:37:22;;;;;;;15.13;9.10;;;26.90;37.00;;;;;;5045815;28;46716;-60
2022/06/29 09:39:50;;;;;;;13.37;9.10;;;26.90;36.20;;;;;;5042255;28;46314;-59
2022/06/29 09:42:26;;;;;;;10.90;8.83;;;26.90;36.10;;;;;;5047300;28;45859;-61
2022/06/29 09:44:52;;;;;;;10.57;9.10;;;27.10;35.80;;;;;;5050605;28;46415;-61
2022/06/29 09:47:20;;;;;;;10.97;8.37;;;27.10;35.70;;;;;;5046761;28;46608;-61
2022/06/29 09:49:59;;;;;;;11.07;8.20;;;26.90;35.40;;;;;;5043392;28;46438;-59
2022/06/29 09:52:26;;;;;;;11.50;7.47;;;26.90;35.30;;;;;;5045349;28;46434;-59
2022/06/29 09:54:56;;;;;;;11.40;7.07;;;27.10;35.00;;;;;;5045471;28;46968;-60
2022/06/29 09:57:27;;;;;;;13.23;7.50;;;27.20;34.70;;;;;;5045707;28;46500;-62
2022/06/29 10:02:52;;;;;;;11.90;7.10;;;27.30;34.60;;;;;;5044372;28;47255;-59
2022/06/29 10:05:20;;;;;;;6.90;5.90;;;27.30;35.70;;;;;;5046373;28;46433;-59
2022/06/29 10:07:52;;;;;;;7.00;5.27;;;27.40;34.50;;;;;;5060033;28;46748;-60
2022/06/29 10:10:20;;;;;;;5.90;4.97;;;27.30;34.90;;;;;;5041783;28;46339;-60
2022/06/29 10:16:00;;;;;;;16.80;5.40;;;27.00;35.50;;;;;;5042642;28;46486;-60
2022/06/29 10:18:47;;;;;;;8.33;5.43;;;27.20;35.50;;;;;;5044339;28;46354;-61
2022/06/29 10:21:22;;;;;;;8.87;4.93;;;27.50;34.70;;;;;;5046217;28;46541;-60
2022/06/29 10:23:53;;;;;;;9.07;5.57;;;27.60;33.60;;;;;;5044404;28;46734;-60
2022/06/29 10:28:54;;;;;;;8.30;4.70;;;27.30;34.20;;;;;;5046604;28;46513;-60
2022/06/29 10:31:56;;;;;;;8.60;5.23;;;27.20;34.60;;;;;;5040809;28;46522;-61
2022/06/29 10:34:31;;;;;;;8.53;5.63;;;27.30;34.60;;;;;;5045083;28;46445;-61
2022/06/29 10:37:05;;;;;;;8.07;5.27;;;27.50;33.90;;;;;;5047409;28;45846;-62
2022/06/29 10:39:49;;;;;;;12.80;5.23;;;27.60;33.50;;;;;;5042959;28;45893;-59
2022/06/29 10:45:13;;;;;;;15.63;5.63;;;27.90;33.10;;;;;;5041644;28;46568;-59
2022/06/29 10:48:01;;;;;;;7.37;4.83;;;27.80;33.20;;;;;;5048416;28;46500;-60
2022/06/29 10:50:28;;;;;;;7.10;4.90;;;27.90;32.50;;;;;;5042468;28;46753;-59
2022/06/29 10:52:57;;;;;;;9.83;5.50;;;28.30;31.80;;;;;;5047760;28;46449;-60
2022/06/29 10:55:27;;;;;;;7.10;4.67;;;28.40;31.00;;;;;;5049165;28;46637;-59
2022/06/29 10:57:54;;;;;;;7.43;5.60;;;28.30;31.00;;;;;;5051049;28;46547;-62
2022/06/29 11:00:25;;;;;;;8.97;5.50;;;28.00;31.60;;;;;;5045449;28;46494;-59
2022/06/29 11:02:51;;;;;;;8.93;4.93;;;27.80;32.10;;;;;;5047344;28;47360;-60
2022/06/29 11:05:17;;;;;;;8.57;4.77;;;27.80;32.40;;;;;;5048364;28;45890;-61
2022/06/29 11:13:24;;;;;;;6.87;4.67;;;27.70;32.70;;;;;;5046387;28;46803;-59
2022/06/29 11:15:55;;;;;;;11.90;5.33;;;27.20;33.90;;;;;;5048478;28;46466;-59
2022/06/29 11:18:31;;;;;;;8.67;5.13;;;27.00;34.50;;;;;;5047323;28;46490;-60
2022/06/29 11:21:03;;;;;;;7.63;5.60;;;26.90;34.50;;;;;;5045707;28;46493;-61
2022/06/29 11:23:33;;;;;;;7.30;4.63;;;26.90;34.80;;;;;;5049220;28;46776;-62
2022/06/29 11:26:00;;;;;;;7.97;5.20;;;27.00;34.80;;;;;;5048686;28;45871;-61
2022/06/29 11:28:28;;;;;;;10.73;5.30;;;27.00;35.90;;;;;;5047453;28;46523;-60
2022/06/29 11:31:04;;;;;;;11.20;4.63;;;26.80;35.30;;;;;;5043898;28;46490;-60
2022/06/29 11:33:38;;;;;;;7.70;4.40;;;26.70;35.30;;;;;;5046604;28;47050;-63
2022/06/29 11:36:06;;;;;;;6.60;4.87;;;26.80;35.30;;;;;;5048225;28;46464;-62
2022/06/29 11:38:36;;;;;;;7.73;5.23;;;26.90;35.10;;;;;;5048102;28;46370;-63
2022/06/29 11:41:17;;;;;;;9.67;4.90;;;27.00;34.90;;;;;;5043108;28;46864;-61
2022/06/29 11:43:43;;;;;;;7.67;4.57;;;27.20;34.40;;;;;;5035372;28;46527;-60
2022/06/29 11:46:21;;;;;;;7.80;4.30;;;27.40;34.40;;;;;;5043268;28;46555;-62
2022/06/29 11:51:35;;;;;;;7.50;5.23;;;27.90;33.40;;;;;;5047510;28;46376;-60
2022/06/29 11:54:06;;;;;;;8.37;4.53;;;28.10;32.80;;;;;;5048145;28;46710;-60
2022/06/29 11:56:32;;;;;;;5.60;4.20;;;28.00;32.40;;;;;;5045665;28;46763;-61
2022/06/29 11:59:05;;;;;;;5.90;4.67;;;28.10;32.00;;;;;;5046847;28;46432;-60
2022/06/29 12:01:32;;;;;;;6.17;4.20;;;28.10;32.10;;;;;;5048895;28;46445;-60
2022/06/29 12:04:02;;;;;;;9.73;4.47;;;28.40;31.60;;;;;;5046588;28;47213;-61
2022/06/29 12:06:34;;;;;;;11.23;4.87;;;28.70;30.60;;;;;;5047843;28;46494;-62
2022/06/29 12:08:59;;;;;;;10.10;5.07;;;29.10;30.00;;;;;;5050130;28;46413;-61
2022/06/29 12:11:25;;;;;;;8.60;4.73;;;29.10;29.70;;;;;;5055532;28;46497;-61
2022/06/29 12:13:51;;;;;;;7.00;4.37;;;29.30;29.20;;;;;;5044448;28;46653;-61
2022/06/29 12:16:17;;;;;;;7.60;4.30;;;29.40;29.00;;;;;;5050273;28;46664;-60
2022/06/29 12:18:43;;;;;;;8.93;4.70;;;29.00;28.70;;;;;;5048082;28;46988;-60
2022/06/29 12:21:09;;;;;;;8.43;4.70;;;28.40;29.80;;;;;;5048908;28;46536;-60
2022/06/29 12:23:36;;;;;;;7.00;5.20;;;28.30;29.80;;;;;;5046449;28;48156;-60
2022/06/29 12:26:02;;;;;;;6.07;4.10;;;28.20;30.30;;;;;;5048778;28;46349;-62
2022/06/29 12:28:28;;;;;;;10.73;4.20;;;28.10;30.70;;;;;;5049134;28;46448;-61
2022/06/29 12:30:54;;;;;;;6.20;3.97;;;28.50;30.20;;;;;;5047893;28;46397;-65
2022/06/29 12:33:20;;;;;;;10.20;4.83;;;28.70;29.80;;;;;;5046234;28;46584;-61
2022/06/29 12:35:46;;;;;;;10.60;4.10;;;28.70;29.70;;;;;;5051883;28;46499;-60
2022/06/29 12:38:12;;;;;;;10.13;3.47;;;28.40;29.80;;;;;;5051341;28;45842;-61
2022/06/29 12:40:38;;;;;;;6.37;4.30;;;28.30;29.80;;;;;;5049770;28;46644;-61
2022/06/29 12:43:05;;;;;;;7.53;4.10;;;28.80;29.30;;;;;;5047043;28;47340;-61
2022/06/29 12:45:31;;;;;;;6.70;3.90;;;29.10;28.50;;;;;;5050539;28;46309;-61
2022/06/29 12:47:57;;;;;;;6.27;4.53;;;29.30;28.30;;;;;;5050247;28;46287;-61
2022/06/29 12:50:23;;;;;;;6.27;3.90;;;29.10;28.20;;;;;;5046124;28;46249;-61
2022/06/29 12:52:51;;;;;;;5.23;4.00;;;29.20;28.20;;;;;;5046987;28;46439;-62
2022/06/29 12:55:18;;;;;;;8.43;4.80;;;29.00;28.10;;;;;;5049569;28;46334;-62
2022/06/29 12:57:44;;;;;;;5.27;3.80;;;28.80;28.90;;;;;;5050164;28;45877;-62
2022/06/29 13:00:11;;;;;;;7.60;4.50;;;28.80;28.90;;;;;;5049877;28;46443;-63
2022/06/29 13:02:37;;;;;;;10.63;5.17;;;29.10;28.20;;;;;;5046944;28;47117;-63